Time;durP1;ratioP1;P1;durP2;ratioP2;P2;SDS_P1;SDS_P2;PMS_P1;PMS_P2;Temp;Humidity;BMP_temperature;BMP_pressure;BME280_temperature;BME280_humidity;BME280_pressure;Samples;Min_cycle;Max_cycle;Signal;HPM_P1;HPM_P2
2021/05/24 00:00:25;;;;;;;;;1.33;0.67;;;;;13.75;51.26;100653.81;5032434;28;51767;-51
2021/05/24 00:02:51;;;;;;;;;0.00;0.00;;;;;13.75;51.39;100639.88;5032736;28;51298;-50
2021/05/24 00:05:20;;;;;;;;;0.33;0.33;;;;;13.71;51.47;100651.97;5052639;28;51101;-49
2021/05/24 00:07:46;;;;;;;;;0.00;0.00;;;;;13.70;51.35;100652.81;5051136;28;51082;-48
2021/05/24 00:10:18;;;;;;;;;1.33;1.00;;;;;13.71;51.74;100641.53;5046891;28;52691;-51
2021/05/24 00:12:47;;;;;;;;;1.00;0.33;;;;;13.69;51.83;100639.72;5045285;28;51182;-49
2021/05/24 00:15:16;;;;;;;;;0.33;0.00;;;;;13.66;51.61;100627.47;5039304;28;51206;-49
2021/05/24 00:17:42;;;;;;;;;0.33;0.33;;;;;13.65;51.83;100629.19;5050189;28;51105;-51
2021/05/24 00:20:08;;;;;;;;;0.00;0.00;;;;;13.63;51.81;100636.09;5052511;28;52864;-50
2021/05/24 00:22:33;;;;;;;;;1.67;1.00;;;;;13.61;51.92;100623.84;5050685;28;51272;-48
2021/05/24 00:24:59;;;;;;;;;0.00;0.00;;;;;13.61;52.32;100616.03;5052601;28;51736;-51
2021/05/24 00:27:24;;;;;;;;;0.00;0.00;;;;;13.60;51.92;100614.28;5051068;28;51333;-52
2021/05/24 00:29:50;;;;;;;;;0.00;0.00;;;;;13.60;52.08;100614.28;5050366;28;51100;-49
2021/05/24 00:32:15;;;;;;;;;0.67;0.67;;;;;13.59;52.32;100615.13;5047631;28;51045;-51
2021/05/24 00:34:41;;;;;;;;;0.00;0.00;;;;;13.58;52.62;100603.78;5040015;28;51112;-52
2021/05/24 00:37:06;;;;;;;;;0.67;0.67;;;;;13.58;52.19;100598.56;5039606;28;51141;-49
2021/05/24 00:39:31;;;;;;;;;0.67;0.67;;;;;13.58;52.35;100603.78;5045003;28;52958;-51
2021/05/24 00:41:57;;;;;;;;;1.00;0.33;;;;;13.58;52.50;100595.06;5050934;28;51134;-52
2021/05/24 00:44:24;;;;;;;;;1.33;1.00;;;;;13.57;52.67;100593.31;5051786;28;50995;-51
2021/05/24 00:46:50;;;;;;;;;2.00;1.00;;;;;13.56;52.11;100591.53;5043114;28;51402;-50
2021/05/24 00:49:16;;;;;;;;;0.00;0.00;;;;;13.55;52.79;100590.66;5051882;28;51955;-50
2021/05/24 00:51:41;;;;;;;;;1.00;0.00;;;;;13.53;52.90;100579.31;5047871;28;51125;-48
2021/05/24 00:54:06;;;;;;;;;0.00;0.00;;;;;13.52;52.63;100583.63;5035277;28;52705;-50
2021/05/24 00:56:32;;;;;;;;;1.00;1.00;;;;;13.52;52.82;100581.00;5043526;28;51365;-49
2021/05/24 00:58:58;;;;;;;;;0.00;0.00;;;;;13.53;53.02;100581.91;5047404;28;52011;-49
2021/05/24 01:01:23;;;;;;;;;2.00;1.00;;;;;13.54;52.42;100577.56;5045689;28;51141;-49
2021/05/24 01:03:49;;;;;;;;;1.33;1.00;;;;;13.54;52.75;100568.03;5055668;28;51437;-48
2021/05/24 01:06:14;;;;;;;;;1.00;1.00;;;;;13.56;52.39;100568.06;5052808;28;51192;-48
2021/05/24 01:08:40;;;;;;;;;1.00;1.00;;;;;13.55;52.42;100554.13;5055064;28;50972;-51
2021/05/24 01:11:06;;;;;;;;;0.33;0.33;;;;;13.51;52.37;100545.34;5054054;28;51062;-48
2021/05/24 01:13:31;;;;;;;;;1.00;0.00;;;;;13.52;52.58;100541.88;5039721;28;50941;-48
2021/05/24 01:15:56;;;;;;;;;0.00;0.00;;;;;13.52;52.48;100535.81;5039136;28;51111;-49
2021/05/24 01:18:22;;;;;;;;;0.00;0.00;;;;;13.50;52.84;100530.53;5054899;28;52100;-49
2021/05/24 01:20:47;;;;;;;;;1.00;0.00;;;;;13.49;52.37;100526.19;5043596;28;51241;-48
2021/05/24 01:23:15;;;;;;;;;0.33;0.33;;;;;13.44;52.85;100529.47;5054184;28;50799;-50
2021/05/24 01:25:46;;;;;;;;;1.00;1.00;;;;;13.42;52.61;100532.03;5053298;28;50996;-48
2021/05/24 01:28:13;;;;;;;;;0.00;0.00;;;;;13.41;53.26;100521.53;5054347;28;51014;-48
2021/05/24 01:30:40;;;;;;;;;0.00;0.00;;;;;13.38;53.28;100519.75;5053250;28;51100;-49
2021/05/24 01:33:06;;;;;;;;;2.00;1.33;;;;;13.36;53.43;100521.44;5054451;28;52103;-48
2021/05/24 01:35:32;;;;;;;;;1.00;0.00;;;;;13.33;53.69;100517.03;5027996;28;51120;-48
2021/05/24 01:37:58;;;;;;;;;1.00;1.00;;;;;13.33;53.55;100521.34;5027011;28;51646;-49
2021/05/24 01:40:24;;;;;;;;;1.00;1.00;;;;;13.31;54.65;100515.22;5037378;28;51077;-48
2021/05/24 01:42:58;;;;;;;;;1.00;0.33;;;;;13.31;54.28;100517.84;5054217;28;50820;-48
2021/05/24 01:45:24;;;;;;;;;1.00;0.33;;;;;13.31;54.61;100510.00;5047797;28;51081;-48
2021/05/24 01:47:50;;;;;;;;;1.00;1.00;;;;;13.32;55.35;100506.56;5030254;28;54809;-48
2021/05/24 01:50:16;;;;;;;;;1.00;1.00;;;;;13.31;55.11;100510.88;5054632;28;50923;-48
2021/05/24 01:52:43;;;;;;;;;0.67;0.67;;;;;13.28;55.03;100502.09;5052931;28;51040;-49
2021/05/24 01:55:09;;;;;;;;;0.33;0.33;;;;;13.25;55.14;100513.34;5054829;28;51232;-50
2021/05/24 01:57:35;;;;;;;;;1.00;1.00;;;;;13.21;55.16;100504.53;5038382;28;52808;-49
2021/05/24 02:00:03;;;;;;;;;0.33;0.33;;;;;13.15;55.84;100512.19;5054507;28;51060;-50
2021/05/24 02:02:28;;;;;;;;;1.00;1.00;;;;;13.11;55.72;100499.91;5039573;28;51094;-49
2021/05/24 02:04:54;;;;;;;;;0.00;0.00;;;;;13.09;55.88;100496.38;5054821;28;51015;-49
2021/05/24 02:07:19;;;;;;;;;1.67;1.00;;;;;13.07;55.63;100495.44;5046986;28;51545;-48
2021/05/24 02:09:44;;;;;;;;;0.00;0.00;;;;;13.04;56.73;100493.66;5041163;28;51088;-49
2021/05/24 02:12:10;;;;;;;;;0.00;0.00;;;;;13.02;56.27;100484.03;5044381;28;51577;-49
2021/05/24 02:14:35;;;;;;;;;0.33;0.33;;;;;13.00;56.16;100490.09;5034587;28;51402;-48
2021/05/24 02:17:01;;;;;;;;;1.00;1.00;;;;;12.99;57.08;100482.22;5045507;28;51986;-49
2021/05/24 02:19:26;;;;;;;;;1.00;0.00;;;;;12.95;57.13;100486.47;5036096;28;51037;-50
2021/05/24 02:21:51;;;;;;;;;1.00;1.00;;;;;12.89;57.50;100481.09;5052917;28;51624;-49
2021/05/24 02:24:17;;;;;;;;;0.00;0.00;;;;;12.82;57.65;100471.34;5053860;28;51275;-52
2021/05/24 02:26:44;;;;;;;;;1.00;1.00;;;;;12.76;58.27;100476.38;5052298;28;51602;-50
2021/05/24 02:29:11;;;;;;;;;1.00;1.00;;;;;12.67;59.03;100480.50;5053864;28;51132;-50
2021/05/24 02:31:37;;;;;;;;;0.33;0.33;;;;;12.61;59.72;100488.13;5047784;28;52598;-51
2021/05/24 02:34:04;;;;;;;;;0.33;0.33;;;;;12.56;60.58;100476.66;5042158;28;51091;-48
2021/05/24 02:36:30;;;;;;;;;1.00;0.33;;;;;12.50;59.72;100474.78;5042616;28;53287;-51
2021/05/24 02:38:56;;;;;;;;;0.00;0.00;;;;;12.50;59.79;100468.69;5034776;28;52378;-50
2021/05/24 02:41:22;;;;;;;;;1.00;1.00;;;;;12.44;60.29;100465.06;5050121;28;51727;-48
2021/05/24 02:43:47;;;;;;;;;0.00;0.00;;;;;12.42;59.94;100477.19;5052327;28;51244;-51
2021/05/24 02:46:13;;;;;;;;;0.00;0.00;;;;;12.38;61.00;100458.81;5039314;28;52132;-49
2021/05/24 02:48:38;;;;;;;;;1.00;1.00;;;;;12.34;60.06;100452.63;5053684;28;50954;-48
2021/05/24 02:51:05;;;;;;;;;1.00;1.00;;;;;12.33;60.35;100450.88;5052810;28;51192;-49
2021/05/24 02:53:30;;;;;;;;;1.00;1.00;;;;;12.34;60.41;100455.25;5053573;28;50973;-50
2021/05/24 02:55:56;;;;;;;;;0.67;0.67;;;;;12.33;60.39;100446.53;5052327;28;51209;-49
2021/05/24 02:58:21;;;;;;;;;1.00;1.00;;;;;12.31;61.17;100448.22;5053225;28;50993;-49
2021/05/24 03:00:46;;;;;;;;;1.00;1.00;;;;;12.28;60.80;100442.91;5052365;28;50973;-50
2021/05/24 03:03:13;;;;;;;;;0.00;0.00;;;;;12.25;61.65;100449.75;5053664;28;51148;-52
2021/05/24 03:05:39;;;;;;;;;1.00;1.00;;;;;12.20;61.24;100457.41;5052359;28;51240;-50
2021/05/24 03:08:04;;;;;;;;;1.67;1.00;;;;;12.16;62.53;100445.13;5051144;28;50980;-49
2021/05/24 03:10:29;;;;;;;;;1.00;1.00;;;;;12.11;63.21;100442.41;5051397;28;51346;-48
2021/05/24 03:12:55;;;;;;;;;0.00;0.00;;;;;12.09;62.66;100446.66;5041526;28;51414;-49
2021/05/24 03:15:21;;;;;;;;;0.00;0.00;;;;;12.03;64.00;100441.25;5033033;28;52563;-51
2021/05/24 03:17:47;;;;;;;;;1.00;1.00;;;;;11.98;63.54;100432.44;5040790;28;51378;-48
2021/05/24 03:20:14;;;;;;;;;1.00;1.00;;;;;11.94;64.17;100431.47;5053532;28;51028;-48
2021/05/24 03:22:40;;;;;;;;;1.33;1.00;;;;;11.90;63.50;100440.88;5051451;28;51166;-48
2021/05/24 03:25:08;;;;;;;;;1.00;1.00;;;;;11.89;63.83;100439.13;5053020;28;51828;-48
2021/05/24 03:27:34;;;;;;;;;1.00;1.00;;;;;11.88;64.35;100431.25;5035295;28;51304;-50
2021/05/24 03:29:59;;;;;;;;;0.67;0.67;;;;;11.84;64.00;100429.38;5052862;28;51075;-50
2021/05/24 03:32:24;;;;;;;;;0.67;0.67;;;;;11.85;63.99;100429.44;5051732;28;51339;-50
2021/05/24 03:34:50;;;;;;;;;1.00;1.00;;;;;11.86;64.40;100428.63;5052908;28;51262;-51
2021/05/24 03:37:15;;;;;;;;;1.00;1.00;;;;;11.87;65.46;100434.69;5041619;28;51112;-52
2021/05/24 03:39:41;;;;;;;;;1.00;1.00;;;;;11.82;64.32;100427.63;5036419;28;51110;-53
2021/05/24 03:42:06;;;;;;;;;0.75;0.75;;;;;11.82;65.05;100442.38;5051763;28;51273;-51
2021/05/24 03:44:32;;;;;;;;;0.00;0.00;;;;;11.77;65.15;100437.00;5039464;28;51796;-51
2021/05/24 03:46:57;;;;;;;;;1.00;0.00;;;;;11.73;65.20;100455.97;5044661;28;51081;-50
2021/05/24 03:49:22;;;;;;;;;0.00;0.00;;;;;11.71;66.77;100448.94;5053111;28;51466;-49
2021/05/24 03:51:48;;;;;;;;;0.33;0.00;;;;;11.65;67.09;100450.50;5051749;28;51216;-49
2021/05/24 03:54:13;;;;;;;;;1.67;1.67;;;;;11.64;66.50;100448.75;5052302;28;51886;-51
2021/05/24 03:56:38;;;;;;;;;1.00;1.00;;;;;11.65;66.33;100450.50;5051171;28;50926;-49
2021/05/24 03:59:04;;;;;;;;;0.25;0.25;;;;;11.63;66.85;100452.19;5053177;28;51510;-49
2021/05/24 04:01:30;;;;;;;;;0.00;0.00;;;;;11.61;66.55;100452.97;5051957;28;51142;-49
2021/05/24 04:03:56;;;;;;;;;0.33;0.33;;;;;11.63;65.75;100441.78;5052900;28;51802;-49
2021/05/24 04:06:24;;;;;;;;;2.00;1.25;;;;;11.63;66.04;100452.19;5051374;28;51109;-50
2021/05/24 04:08:50;;;;;;;;;1.75;1.25;;;;;11.64;66.69;100447.84;5050671;28;51021;-50
2021/05/24 04:11:15;;;;;;;;;1.00;1.00;;;;;11.62;67.59;100445.19;5051287;28;51347;-49
2021/05/24 04:13:46;;;;;;;;;1.50;1.50;;;;;11.59;66.63;100460.72;5049206;28;51925;-49
2021/05/24 04:16:11;;;;;;;;;1.00;1.00;;;;;11.59;67.22;100445.13;5038997;28;52446;-50
2021/05/24 04:18:40;;;;;;;;;1.00;0.67;;;;;11.61;66.97;100458.19;5052622;28;50972;-49
2021/05/24 04:21:05;;;;;;;;;1.67;1.00;;;;;11.58;67.49;100448.56;5051522;28;51045;-49
2021/05/24 04:23:31;;;;;;;;;2.00;0.33;;;;;11.57;67.59;100454.56;5048607;28;51555;-49
2021/05/24 04:25:56;;;;;;;;;1.50;0.50;;;;;11.53;67.15;100455.31;5051338;28;50831;-50
2021/05/24 04:28:22;;;;;;;;;1.00;0.00;;;;;11.52;67.08;100444.03;5048518;28;51270;-49
2021/05/24 04:30:47;;;;;;;;;0.00;0.00;;;;;11.54;68.86;100462.31;5041470;28;51214;-50
2021/05/24 04:33:13;;;;;;;;;1.00;1.00;;;;;11.49;68.32;100453.47;5052429;28;51913;-52
2021/05/24 04:35:38;;;;;;;;;1.50;1.00;;;;;11.47;68.18;100455.13;5044693;28;51208;-51
2021/05/24 04:38:04;;;;;;;;;1.00;1.00;;;;;11.47;67.82;100462.91;5042271;28;51120;-52
2021/05/24 04:40:30;;;;;;;;;0.33;0.33;;;;;11.46;69.69;100458.56;5055158;28;50987;-49
2021/05/24 04:42:56;;;;;;;;;1.00;1.00;;;;;11.43;70.32;100464.53;5055280;28;51743;-48
2021/05/24 04:45:22;;;;;;;;;0.67;0.67;;;;;11.40;68.77;100465.31;5045467;28;51007;-50
2021/05/24 04:47:47;;;;;;;;;0.00;0.00;;;;;11.36;69.16;100472.94;5055127;28;51227;-49
2021/05/24 04:50:13;;;;;;;;;0.75;0.75;;;;;11.33;70.20;100476.34;5055903;28;51398;-49
2021/05/24 04:52:39;;;;;;;;;1.00;1.00;;;;;11.30;69.30;100484.06;5053503;28;50988;-51
2021/05/24 04:55:06;;;;;;;;;2.00;2.00;;;;;11.28;69.90;100485.69;5040754;28;51018;-50
2021/05/24 04:57:31;;;;;;;;;1.00;1.00;;;;;11.27;69.96;100483.94;5051975;28;51135;-51
2021/05/24 04:59:57;;;;;;;;;1.67;1.00;;;;;11.33;69.38;100484.13;5055568;28;51329;-49
2021/05/24 05:02:22;;;;;;;;;0.33;0.33;;;;;11.39;69.71;100481.75;5053716;28;51702;-48
2021/05/24 05:04:48;;;;;;;;;1.00;1.00;;;;;11.42;69.35;100479.25;5055596;28;50985;-50
2021/05/24 05:07:13;;;;;;;;;0.33;0.33;;;;;11.47;69.55;100486.31;5053775;28;51078;-49
2021/05/24 05:09:38;;;;;;;;;1.50;1.50;;;;;11.50;69.41;100470.84;5037341;28;50990;-50
2021/05/24 05:12:04;;;;;;;;;1.75;1.00;;;;;11.51;69.85;100472.59;5051490;28;51050;-48
2021/05/24 05:14:29;;;;;;;;;1.33;1.00;;;;;11.48;69.59;100478.56;5017507;28;51073;-48
2021/05/24 05:16:55;;;;;;;;;0.00;0.00;;;;;11.41;70.82;100461.88;5048486;28;51230;-49
2021/05/24 05:19:20;;;;;;;;;1.33;0.67;;;;;11.38;70.72;100456.56;5037490;28;51404;-48
2021/05/24 05:21:47;;;;;;;;;1.00;1.00;;;;;11.36;70.24;100458.25;5053621;28;51765;-49
2021/05/24 05:24:12;;;;;;;;;2.00;1.33;;;;;11.35;69.88;100456.50;5054808;28;51013;-49
2021/05/24 05:26:37;;;;;;;;;1.00;1.00;;;;;11.37;69.61;100452.22;5053732;28;51493;-49
2021/05/24 05:29:03;;;;;;;;;0.00;0.00;;;;;11.38;70.24;100446.16;5055718;28;51082;-49
2021/05/24 05:31:28;;;;;;;;;0.50;0.50;;;;;11.42;70.21;100453.25;5053278;28;51464;-49
2021/05/24 05:33:55;;;;;;;;;2.00;1.00;;;;;11.48;69.74;100449.97;5038969;28;51019;-49
2021/05/24 05:36:20;;;;;;;;;1.00;1.00;;;;;11.53;70.19;100460.50;5047286;28;51182;-49
2021/05/24 05:38:45;;;;;;;;;1.00;1.00;;;;;11.54;70.18;100464.91;5044265;28;50931;-48
2021/05/24 05:41:11;;;;;;;;;1.00;1.00;;;;;11.51;69.77;100467.38;5052831;28;52718;-49
2021/05/24 05:43:36;;;;;;;;;0.00;0.00;;;;;11.51;69.99;100467.38;5054617;28;51140;-51
2021/05/24 05:46:02;;;;;;;;;1.33;1.33;;;;;11.51;69.96;100465.69;5043505;28;50903;-50
2021/05/24 05:48:28;;;;;;;;;1.25;1.25;;;;;11.54;69.80;100470.09;5053179;28;51064;-49
2021/05/24 05:50:53;;;;;;;;;2.00;1.00;;;;;11.57;69.50;100467.59;5053373;28;51706;-49
2021/05/24 05:53:19;;;;;;;;;2.00;2.00;;;;;11.58;69.44;100478.88;5054081;28;50934;-48
2021/05/24 05:55:44;;;;;;;;;1.50;1.00;;;;;11.57;69.52;100456.31;5052873;28;51083;-48
2021/05/24 05:58:10;;;;;;;;;1.00;1.00;;;;;11.59;69.71;100458.13;5054390;28;52050;-50
2021/05/24 06:00:35;;;;;;;;;1.00;1.00;;;;;11.63;69.56;100465.19;5052906;28;51834;-51
2021/05/24 06:03:00;;;;;;;;;1.00;1.00;;;;;11.65;69.80;100457.41;5054405;28;51001;-51
2021/05/24 06:05:26;;;;;;;;;0.67;0.67;;;;;11.68;69.82;100461.03;5053552;28;51091;-49
2021/05/24 06:07:51;;;;;;;;;4.00;2.00;;;;;11.72;70.07;100476.72;5053991;28;51127;-49
2021/05/24 06:10:17;;;;;;;;;2.00;1.33;;;;;11.75;69.94;100474.22;5054113;28;51260;-51
2021/05/24 06:12:46;;;;;;;;;1.00;1.00;;;;;11.76;69.48;100479.47;5052774;28;51054;-50
2021/05/24 06:15:16;;;;;;;;;1.67;1.67;;;;;11.81;69.30;100477.00;5038648;28;50993;-49
2021/05/24 06:17:42;;;;;;;;;0.00;0.00;;;;;11.84;69.35;100479.72;5038849;28;51063;-49
2021/05/24 06:20:08;;;;;;;;;2.50;2.00;;;;;11.88;69.03;100489.41;5053916;28;50966;-49
2021/05/24 06:22:33;;;;;;;;;1.50;1.00;;;;;11.89;69.38;100485.09;5052550;28;51228;-50
2021/05/24 06:24:59;;;;;;;;;1.50;1.50;;;;;11.92;69.20;100482.56;5051656;28;51050;-50
2021/05/24 06:27:24;;;;;;;;;0.00;0.00;;;;;11.98;69.06;100484.47;5050174;28;50988;-49
2021/05/24 06:29:49;;;;;;;;;2.00;1.50;;;;;12.04;69.02;100480.34;5053816;28;51075;-47
2021/05/24 06:32:15;;;;;;;;;3.00;2.00;;;;;12.07;68.73;100469.19;5048685;28;51190;-48
2021/05/24 06:34:40;;;;;;;;;1.50;1.50;;;;;12.17;68.13;100475.56;5040700;28;51067;-51
2021/05/24 06:37:05;;;;;;;;;1.50;1.00;;;;;12.21;68.68;100483.50;5052398;28;51056;-50
2021/05/24 06:39:31;;;;;;;;;1.00;1.00;;;;;12.26;68.22;100483.66;5053659;28;52275;-50
2021/05/24 06:41:56;;;;;;;;;2.00;1.00;;;;;12.34;67.70;100484.75;5052347;28;50989;-49
2021/05/24 06:44:21;;;;;;;;;3.33;2.67;;;;;12.38;67.53;100496.16;5051954;28;50939;-50
2021/05/24 06:46:48;;;;;;;;;3.00;3.00;;;;;12.36;66.92;100490.00;5052104;28;51051;-51
2021/05/24 06:49:13;;;;;;;;;1.67;1.67;;;;;12.40;66.86;100498.81;5053567;28;51761;-50
2021/05/24 06:51:39;;;;;;;;;3.00;3.00;;;;;12.42;66.83;100498.03;5051745;28;51070;-48
2021/05/24 06:54:04;;;;;;;;;1.00;1.00;;;;;12.45;66.89;100500.69;5053135;28;51045;-48
2021/05/24 06:56:30;;;;;;;;;2.67;2.00;;;;;12.55;67.06;100500.97;5052155;28;51137;-52
2021/05/24 06:58:55;;;;;;;;;4.50;4.50;;;;;12.63;66.60;100503.78;5035155;28;51585;-48
2021/05/24 07:01:20;;;;;;;;;4.00;4.00;;;;;12.68;66.35;100497.00;5051935;28;51082;-52
2021/05/24 07:03:46;;;;;;;;;6.50;6.00;;;;;12.73;65.89;100496.28;5053555;28;51318;-49
2021/05/24 07:06:11;;;;;;;;;2.00;2.00;;;;;12.77;64.91;100501.59;5052509;28;51053;-50
2021/05/24 07:08:37;;;;;;;;;3.75;3.50;;;;;12.78;65.43;100499.03;5053007;28;51601;-50
2021/05/24 07:11:03;;;;;;;;;3.50;3.50;;;;;12.85;64.98;100503.56;5049528;28;51081;-48
2021/05/24 07:13:28;;;;;;;;;2.00;1.25;;;;;12.97;64.69;100503.03;5039400;28;51108;-48
2021/05/24 07:15:54;;;;;;;;;1.67;1.33;;;;;13.05;64.12;100500.66;5036546;28;51341;-49
2021/05/24 07:18:19;;;;;;;;;1.00;1.00;;;;;12.98;63.85;100497.00;5053255;28;51781;-51
2021/05/24 07:20:45;;;;;;;;;2.33;2.33;;;;;12.99;64.58;100506.56;5052259;28;51270;-50
2021/05/24 07:23:11;;;;;;;;;3.67;3.00;;;;;13.03;64.28;100501.41;5051947;28;50957;-49
2021/05/24 07:25:36;;;;;;;;;1.00;0.67;;;;;12.99;64.11;100511.78;5033932;28;51259;-52
2021/05/24 07:28:01;;;;;;;;;2.33;1.00;;;;;12.88;64.50;100528.81;5040200;28;51904;-47
2021/05/24 07:30:27;;;;;;;;;2.33;1.00;;;;;12.84;64.31;100524.38;5027690;28;50998;-48
2021/05/24 07:32:52;;;;;;;;;1.67;1.67;;;;;12.87;64.52;100521.84;5052514;28;51655;-50
2021/05/24 07:35:17;;;;;;;;;2.00;1.00;;;;;12.90;64.01;100529.78;5053363;28;51006;-50
2021/05/24 07:37:43;;;;;;;;;2.33;2.33;;;;;12.88;64.08;100531.44;5037805;28;51759;-49
2021/05/24 07:40:10;;;;;;;;;2.00;2.00;;;;;12.89;64.18;100535.81;5043829;28;51289;-51
2021/05/24 07:42:35;;;;;;;;;2.33;2.33;;;;;12.86;63.45;100530.53;5049905;28;51046;-49
2021/05/24 07:45:02;;;;;;;;;2.33;2.33;;;;;12.77;63.47;100541.56;5037657;28;51306;-48
2021/05/24 07:47:27;;;;;;;;;2.00;1.33;;;;;12.82;63.90;100542.59;5047878;28;51345;-52
2021/05/24 07:49:53;;;;;;;;;2.00;1.67;;;;;12.96;63.50;100540.34;5044587;28;51042;-48
2021/05/24 07:52:18;;;;;;;;;1.00;1.00;;;;;13.02;62.89;100541.38;5046990;28;51161;-50
2021/05/24 07:54:44;;;;;;;;;2.00;1.00;;;;;13.13;62.67;100534.75;5053039;28;51320;-52
2021/05/24 07:57:09;;;;;;;;;1.00;1.00;;;;;13.23;62.24;100541.97;5050234;28;52759;-49
2021/05/24 07:59:35;;;;;;;;;1.00;1.00;;;;;13.27;62.39;100550.75;5052489;28;51021;-48
2021/05/24 08:02:02;;;;;;;;;1.67;1.00;;;;;13.47;62.01;100561.75;5051297;28;51134;-47
2021/05/24 08:04:28;;;;;;;;;2.33;2.00;;;;;13.60;61.80;100556.88;5054837;28;50851;-48
2021/05/24 08:06:53;;;;;;;;;2.33;1.67;;;;;13.63;61.84;100552.59;5054259;28;52052;-50
2021/05/24 08:09:19;;;;;;;;;1.67;1.00;;;;;13.77;61.09;100550.34;5045700;28;51575;-48
2021/05/24 08:11:44;;;;;;;;;3.00;2.00;;;;;13.81;60.64;100540.88;5041640;28;51403;-50
2021/05/24 08:14:14;;;;;;;;;2.33;2.33;;;;;13.68;60.71;100552.72;5044020;28;51229;-49
2021/05/24 08:16:44;;;;;;;;;2.00;1.67;;;;;13.58;60.33;100548.09;5045302;28;51983;-48
2021/05/24 08:19:09;;;;;;;;;2.00;2.00;;;;;13.59;61.00;100549.88;5047096;28;51226;-50
2021/05/24 08:21:34;;;;;;;;;1.00;1.00;;;;;13.85;60.50;100549.66;5035843;28;51383;-48
2021/05/24 08:24:00;;;;;;;;;2.00;2.00;;;;;14.29;60.75;100536.78;5042980;28;51302;-48
2021/05/24 08:26:25;;;;;;;;;1.00;1.00;;;;;14.62;57.66;100536.59;5045380;28;51015;-49
2021/05/24 08:28:51;;;;;;;;;2.00;2.00;;;;;14.98;58.23;100535.59;5049178;28;51047;-49
2021/05/24 08:31:16;;;;;;;;;2.00;2.00;;;;;15.48;57.36;100532.19;5047726;28;51276;-47
2021/05/24 08:33:42;;;;;;;;;2.00;1.00;;;;;16.57;56.90;100532.97;5036557;28;51122;-48
2021/05/24 08:36:07;;;;;;;;;2.00;2.00;;;;;17.89;53.48;100537.88;5043345;28;51100;-50
2021/05/24 08:38:32;;;;;;;;;2.67;2.67;;;;;18.39;52.71;100531.22;5038266;28;51262;-48
2021/05/24 08:41:05;;;;;;;;;35.25;32.50;;;;;18.11;50.48;100536.31;5039753;28;51230;-50
2021/05/24 08:43:31;;;;;;;;;2.00;2.00;;;;;17.91;49.64;100533.53;5054732;28;51135;-49
2021/05/24 08:45:58;;;;;;;;;3.00;3.00;;;;;17.80;49.12;100533.44;5034187;28;51208;-48
2021/05/24 08:48:24;;;;;;;;;1.00;1.00;;;;;17.98;50.56;100537.94;5028295;28;51361;-49
2021/05/24 08:50:49;;;;;;;;;2.00;2.00;;;;;17.90;48.64;100530.00;5053663;28;51279;-49
2021/05/24 08:53:14;;;;;;;;;8.67;8.00;;;;;18.03;48.73;100530.97;5050059;28;50944;-48
2021/05/24 08:55:40;;;;;;;;;2.00;2.00;;;;;18.69;47.49;100534.00;5040651;28;51279;-48
2021/05/24 08:58:08;;;;;;;;;1.00;1.00;;;;;18.94;47.05;100524.44;5044437;28;51112;-47
2021/05/24 09:00:34;;;;;;;;;1.00;0.00;;;;;20.81;46.42;100519.09;5052487;28;51004;-51
2021/05/24 09:02:59;;;;;;;;;3.00;3.00;;;;;23.95;44.08;100508.63;5039562;28;51202;-48
2021/05/24 09:05:32;;;;;;;;;3.00;3.00;;;;;26.99;33.75;100503.13;5046401;28;51993;-49
2021/05/24 09:08:02;;;;;;;;;2.00;2.00;;;;;28.75;36.49;100509.56;5036543;28;51181;-50
2021/05/24 09:10:30;;;;;;;;;2.00;2.00;;;;;29.67;34.03;100498.78;5035095;28;51061;-47
2021/05/24 09:12:57;;;;;;;;;2.00;2.00;;;;;27.32;30.99;100500.31;5046497;28;51422;-48
2021/05/24 09:15:26;;;;;;;;;2.00;2.00;;;;;26.23;32.99;100514.13;5049456;28;52819;-49
2021/05/24 09:17:54;;;;;;;;;2.00;2.00;;;;;27.83;33.41;100499.53;5051778;28;51111;-49
2021/05/24 09:20:20;;;;;;;;;2.33;2.33;;;;;29.63;31.72;100493.59;5050639;28;51232;-48
2021/05/24 09:23:13;;;;;;;;;2.00;2.00;;;;;29.71;27.52;100476.31;5050264;28;51376;-48
2021/05/24 09:25:53;;;;;;;;;3.00;2.00;;;;;28.71;28.85;100487.44;5034592;28;52719;-50
2021/05/24 09:28:24;;;;;;;;;9.33;8.67;;;;;28.73;27.63;100479.38;5035326;28;51237;-48
2021/05/24 09:31:00;;;;;;;;;2.00;2.00;;;;;27.00;28.87;100478.22;5045318;28;51223;-50
2021/05/24 09:33:26;;;;;;;;;3.33;3.33;;;;;25.62;29.70;100497.13;5033795;28;51307;-48
2021/05/24 09:35:53;;;;;;;;;3.00;3.00;;;;;23.94;32.29;100482.97;5022276;28;52289;-50
2021/05/24 09:38:20;;;;;;;;;3.00;3.00;;;;;22.54;33.37;100475.41;5032514;28;51141;-49
2021/05/24 09:40:58;;;;;;;;;1.33;1.33;;;;;21.34;35.53;100487.13;5047335;28;51124;-49
2021/05/24 09:43:40;;;;;;;;;2.00;2.00;;;;;20.81;36.39;100487.41;5050737;28;51182;-51
2021/05/24 09:46:18;;;;;;;;;2.67;2.67;;;;;21.06;37.70;100489.06;5021916;28;51904;-48
2021/05/24 09:48:49;;;;;;;;;3.00;2.00;;;;;22.50;36.78;100478.06;5043837;28;51104;-48
2021/05/24 09:51:16;;;;;;;;;2.00;2.00;;;;;24.15;36.22;100467.59;5045309;28;51229;-48
2021/05/24 09:54:02;;;;;;;;;2.67;2.00;;;;;24.59;31.81;100461.41;5050354;28;51063;-48
2021/05/24 09:56:31;;;;;;;;;2.00;1.00;;;;;23.25;32.44;100462.06;5029761;28;51330;-47
2021/05/24 09:58:58;;;;;;;;;3.33;2.67;;;;;22.10;34.29;100468.84;5033019;28;51286;-49
2021/05/24 10:01:30;;;;;;;;;2.00;2.00;;;;;21.57;35.56;100464.94;5038855;28;51150;-49
2021/05/24 10:03:59;;;;;;;;;2.67;2.33;;;;;21.30;36.12;100469.56;5042062;28;51437;-49
2021/05/24 10:06:25;;;;;;;;;2.00;2.00;;;;;21.14;36.99;100467.91;5049452;28;51883;-50
2021/05/24 10:08:52;;;;;;;;;2.33;1.67;;;;;20.72;37.11;100458.44;5034254;28;51032;-48
2021/05/24 10:11:18;;;;;;;;;2.00;2.00;;;;;20.09;38.38;100459.59;5035618;28;51124;-48
2021/05/24 10:13:43;;;;;;;;;4.00;2.00;;;;;19.91;39.75;100466.63;5042401;28;51103;-47
2021/05/24 10:16:12;;;;;;;;;3.00;3.00;;;;;19.94;39.17;100466.63;5048537;28;52195;-47
2021/05/24 10:18:39;;;;;;;;;3.00;3.00;;;;;19.68;39.57;100457.00;5039961;28;51115;-47
2021/05/24 10:21:05;;;;;;;;;3.67;2.67;;;;;19.37;40.06;100460.53;5034803;28;51152;-48
2021/05/24 10:23:31;;;;;;;;;6.00;6.00;;;;;19.19;40.60;100458.75;5036067;28;51006;-48
2021/05/24 10:25:59;;;;;;;;;5.33;5.33;;;;;18.93;40.72;100463.94;5038278;28;51737;-49
2021/05/24 10:28:30;;;;;;;;;6.33;6.00;;;;;18.38;41.66;100453.22;5020819;28;51264;-49
2021/05/24 10:30:57;;;;;;;;;6.00;6.00;;;;;17.98;42.70;100462.66;5044224;28;51208;-48
2021/05/24 10:33:36;;;;;;;;;4.00;4.00;;;;;17.75;44.04;100459.00;5045992;28;51102;-50
2021/05/24 10:36:29;;;;;;;;;3.00;3.00;;;;;17.55;44.48;100459.69;5049116;28;51928;-51
2021/05/24 10:39:20;;;;;;;;;5.00;4.00;;;;;17.90;45.06;100443.31;5045389;28;51163;-50
2021/05/24 10:41:55;;;;;;;;;3.67;3.00;;;;;18.47;44.43;100444.53;5048499;28;52740;-51
2021/05/24 10:44:38;;;;;;;;;4.00;3.33;;;;;19.98;43.62;100435.91;5039753;28;51069;-49
2021/05/24 10:47:24;;;;;;;;;6.00;5.00;;;;;20.69;40.15;100430.31;5038864;28;52845;-49
2021/05/24 10:50:03;;;;;;;;;4.33;4.00;;;;;19.97;40.29;100434.97;5037828;28;51349;-49
2021/05/24 10:52:29;;;;;;;;;2.67;2.00;;;;;19.16;41.31;100437.69;5052305;28;51036;-48
2021/05/24 10:54:54;;;;;;;;;8.50;7.25;;;;;18.26;44.32;100445.28;5042112;28;51410;-49
2021/05/24 10:57:20;;;;;;;;;3.33;2.67;;;;;17.36;48.11;100463.94;5049233;28;51648;-49
2021/05/24 10:59:51;;;;;;;;;5.00;4.00;;;;;16.66;50.56;100451.81;5049235;28;50985;-52
2021/05/24 11:02:26;;;;;;;;;3.00;2.67;;;;;16.26;51.21;100454.84;5029747;28;51304;-49
2021/05/24 11:04:59;;;;;;;;;5.00;5.00;;;;;16.18;52.14;100468.72;5049184;28;51353;-48
2021/05/24 11:07:44;;;;;;;;;4.33;4.33;;;;;16.25;52.74;100447.84;5040723;28;52824;-49
2021/05/24 11:10:13;;;;;;;;;4.33;4.33;;;;;17.12;52.30;100444.47;5047528;28;51121;-47
2021/05/24 11:12:39;;;;;;;;;3.00;3.00;;;;;18.40;49.05;100424.34;5047179;28;51216;-50
2021/05/24 11:15:12;;;;;;;;;2.33;1.33;;;;;19.59;47.20;100435.94;5035091;28;51316;-49
2021/05/24 11:18:03;;;;;;;;;4.00;3.33;;;;;20.85;42.02;100425.81;5051544;28;51905;-48
2021/05/24 11:21:02;;;;;;;;;3.00;2.00;;;;;20.55;43.25;100425.13;5042057;28;51934;-49
2021/05/24 11:28:51;;;;;;;;;4.67;4.67;;;;;19.64;45.37;100394.66;5042845;28;51654;-48